createdAt,value
2018-10-03T00:00:09.850Z,12.30
2018-10-03T00:02:38.095Z,12.30
2018-10-03T00:05:07.585Z,12.20
2018-10-03T00:07:35.887Z,12.30
2018-10-03T00:10:16.816Z,12.40
2018-10-03T00:12:57.519Z,12.30
2018-10-03T00:15:38.502Z,12.40
2018-10-03T00:18:19.004Z,12.30
2018-10-03T00:20:47.246Z,12.30
2018-10-03T00:23:27.929Z,12.30
2018-10-03T00:26:08.633Z,12.20
2018-10-03T00:28:36.905Z,12.20
2018-10-03T00:31:06.341Z,12.20
2018-10-03T00:33:34.664Z,12.20
2018-10-03T00:36:04.527Z,12.20
2018-10-03T00:38:32.754Z,12.10
2018-10-03T00:41:01.477Z,12.20
2018-10-03T00:43:42.045Z,12.10
2018-10-03T00:46:23.032Z,12.20
2018-10-03T00:48:51.366Z,12.00
2018-10-03T00:51:21.312Z,12.10
2018-10-03T00:54:01.704Z,12.00
2018-10-03T00:56:42.497Z,12.00
2018-10-03T00:59:23.278Z,12.10
2018-10-03T01:01:51.506Z,12.00
2018-10-03T01:04:33.381Z,12.00
2018-10-03T01:07:13.803Z,12.00
2018-10-03T01:09:54.797Z,11.90
2018-10-03T01:12:35.792Z,11.90
2018-10-03T01:15:04.033Z,12.00
2018-10-03T01:17:44.566Z,12.00
2018-10-03T01:20:12.802Z,12.10
2018-10-03T01:22:41.022Z,12.10
2018-10-03T01:25:09.242Z,12.00
2018-10-03T01:27:50.252Z,11.90
2018-10-03T01:30:30.916Z,11.90
2018-10-03T01:33:11.823Z,11.90
2018-10-03T01:35:40.082Z,11.80
2018-10-03T01:38:20.603Z,11.80
2018-10-03T01:40:48.809Z,11.90
2018-10-03T01:43:16.972Z,11.80
2018-10-03T01:45:57.609Z,11.70
2018-10-03T01:48:25.837Z,11.50
2018-10-03T01:51:06.566Z,11.40
2018-10-03T01:53:47.429Z,11.40
2018-10-03T01:56:15.644Z,11.40
2018-10-03T01:58:56.515Z,11.40
2018-10-03T02:01:37.296Z,11.40
2018-10-03T02:04:05.521Z,11.40
2018-10-03T02:06:45.898Z,11.40
2018-10-03T02:09:26.706Z,11.40
2018-10-03T02:12:07.463Z,11.30
2018-10-03T02:14:35.849Z,11.30
2018-10-03T02:17:04.086Z,11.40
2018-10-03T02:19:44.979Z,11.40
2018-10-03T02:22:14.893Z,11.40
2018-10-03T02:24:43.074Z,11.30
2018-10-03T02:27:11.364Z,11.40
2018-10-03T02:29:39.559Z,11.40
2018-10-03T02:32:20.728Z,11.40
2018-10-03T02:34:49.019Z,11.40
2018-10-03T02:37:30.121Z,11.40
2018-10-03T02:40:10.893Z,11.30
2018-10-03T02:42:51.746Z,11.30
2018-10-03T02:45:32.570Z,11.40
2018-10-03T02:48:13.327Z,11.40
2018-10-03T02:50:43.280Z,11.40
2018-10-03T02:53:24.368Z,11.30
2018-10-03T02:56:05.182Z,11.40
2018-10-03T02:58:46.251Z,11.40
2018-10-03T03:01:27.040Z,11.50
2018-10-03T03:04:07.915Z,11.40
2018-10-03T03:06:48.757Z,11.40
2018-10-03T03:09:16.985Z,11.30
2018-10-03T03:11:57.510Z,11.30
2018-10-03T03:14:38.241Z,11.40
2018-10-03T03:17:19.113Z,11.30
2018-10-03T03:19:59.649Z,11.30
2018-10-03T03:22:40.400Z,11.40
2018-10-03T03:25:21.169Z,11.40
2018-10-03T03:27:49.381Z,11.40
2018-10-03T03:30:29.815Z,11.40
2018-10-03T03:33:10.581Z,11.50
2018-10-03T03:35:51.441Z,11.40
2018-10-03T03:38:32.409Z,11.40
2018-10-03T03:41:13.179Z,11.40
2018-10-03T03:43:41.350Z,11.40
2018-10-03T03:46:21.656Z,11.30
2018-10-03T03:48:55.363Z,11.40
2018-10-03T03:51:23.696Z,11.40
2018-10-03T03:53:51.997Z,11.40
2018-10-03T03:56:32.766Z,11.30
2018-10-03T03:59:01.006Z,11.30
2018-10-03T04:01:30.019Z,11.30
2018-10-03T04:03:58.264Z,11.30
2018-10-03T04:06:26.469Z,11.40
2018-10-03T04:08:54.785Z,11.40
2018-10-03T04:11:23.668Z,11.50
2018-10-03T04:13:53.809Z,11.40
2018-10-03T04:16:22.096Z,11.40
2018-10-03T04:18:50.312Z,11.40
2018-10-03T04:21:22.927Z,11.40
2018-10-03T04:24:04.078Z,11.40
2018-10-03T04:26:32.416Z,11.40
2018-10-03T04:29:00.630Z,11.40
2018-10-03T04:31:41.337Z,11.40
2018-10-03T04:34:09.528Z,11.30
2018-10-03T04:36:38.627Z,11.40
2018-10-03T04:39:18.941Z,11.30
2018-10-03T04:41:47.200Z,11.40
2018-10-03T04:44:17.142Z,10.80
2018-10-03T04:46:45.354Z,11.30
2018-10-03T04:49:16.594Z,11.20
2018-10-03T04:51:56.823Z,11.10
2018-10-03T04:54:25.075Z,11.00
2018-10-03T04:56:53.321Z,10.90
2018-10-03T04:59:34.111Z,10.90
2018-10-03T05:02:14.424Z,10.90
2018-10-03T05:04:55.045Z,10.80
2018-10-03T05:07:23.258Z,10.80
2018-10-03T05:09:51.527Z,10.90
2018-10-03T05:12:32.050Z,10.80
2018-10-03T05:15:00.297Z,10.80
2018-10-03T05:17:41.141Z,10.80
2018-10-03T05:20:21.595Z,10.90
2018-10-03T05:23:02.543Z,10.80
2018-10-03T05:25:34.096Z,10.80
2018-10-03T05:28:02.406Z,10.80
2018-10-03T05:30:30.022Z,10.80
2018-10-03T05:32:59.863Z,10.80
2018-10-03T05:35:36.725Z,10.80
2018-10-03T05:38:04.236Z,10.80
2018-10-03T05:40:34.769Z,10.80
2018-10-03T05:43:02.302Z,10.80
2018-10-03T05:45:29.840Z,10.80
2018-10-03T05:47:57.363Z,10.80
2018-10-03T05:50:24.930Z,10.80
2018-10-03T05:52:58.447Z,10.80
2018-10-03T05:55:31.946Z,10.80
2018-10-03T05:58:05.463Z,10.80
2018-10-03T06:00:33.018Z,10.80
2018-10-03T06:03:00.557Z,10.80
2018-10-03T06:05:34.408Z,10.80
2018-10-03T06:08:08.053Z,10.80
2018-10-03T06:10:35.584Z,10.80
2018-10-03T06:13:03.103Z,10.80
2018-10-03T06:15:36.670Z,10.80
2018-10-03T06:18:10.433Z,10.90
2018-10-03T06:20:37.961Z,10.90
2018-10-03T06:23:06.216Z,10.90
2018-10-03T06:25:34.430Z,10.80
2018-10-03T06:28:03.203Z,10.80
2018-10-03T06:30:31.500Z,10.90
2018-10-03T06:32:59.700Z,11.00
2018-10-03T06:35:36.035Z,11.00
2018-10-03T06:38:10.301Z,11.00
2018-10-03T06:40:39.345Z,11.10
2018-10-03T06:43:07.541Z,11.30
2018-10-03T06:45:36.791Z,11.40
2018-10-03T06:48:05.045Z,11.50
2018-10-03T06:50:34.907Z,11.60
2018-10-03T06:53:15.211Z,11.70
2018-10-03T06:55:56.173Z,11.80
2018-10-03T06:58:37.230Z,11.70
2018-10-03T07:01:05.501Z,11.50
2018-10-03T07:03:45.980Z,11.20
2018-10-03T07:06:26.516Z,11.00
2018-10-03T07:08:55.824Z,11.00
2018-10-03T07:11:24.312Z,11.10
2018-10-03T07:13:54.269Z,11.20
2018-10-03T07:16:23.982Z,11.20
2018-10-03T07:18:55.378Z,11.30
2018-10-03T07:21:23.769Z,11.40
2018-10-03T07:23:52.067Z,11.60
2018-10-03T07:26:28.073Z,11.60
2018-10-03T07:28:56.311Z,11.70
2018-10-03T07:31:36.701Z,11.70
2018-10-03T07:34:17.472Z,11.80
2018-10-03T07:36:58.277Z,11.80
2018-10-03T07:39:26.565Z,11.80
2018-10-03T07:42:07.118Z,12.00
2018-10-03T07:44:48.139Z,12.10
2018-10-03T07:47:16.961Z,12.00
2018-10-03T07:49:45.243Z,12.00
2018-10-03T07:52:15.346Z,12.10
2018-10-03T07:54:45.305Z,12.10
2018-10-03T07:57:13.518Z,12.20
2018-10-03T07:59:54.616Z,12.20
2018-10-03T08:02:22.898Z,12.20
2018-10-03T08:05:03.320Z,12.20
2018-10-03T08:07:51.304Z,12.20
2018-10-03T08:10:36.499Z,12.10
2018-10-03T08:13:17.327Z,12.20
2018-10-03T08:15:58.073Z,12.40
2018-10-03T08:21:20.231Z,12.80
2018-10-03T08:27:19.410Z,13.00
2018-10-03T08:30:02.348Z,13.10
2018-10-03T08:34:18.915Z,13.20
2018-10-03T08:37:03.136Z,13.10
2018-10-03T08:48:55.483Z,12.60
2018-10-03T09:07:28.901Z,12.70
2018-10-03T09:09:57.602Z,12.80
2018-10-03T09:12:26.455Z,12.90
2018-10-03T09:14:54.765Z,12.90
2018-10-03T09:17:23.006Z,12.80
2018-10-03T09:19:54.055Z,12.80
2018-10-03T09:22:23.363Z,13.10
2018-10-03T09:24:51.813Z,13.00
2018-10-03T09:27:26.096Z,13.00
2018-10-03T09:29:56.260Z,13.30
2018-10-03T09:32:29.231Z,13.40
2018-10-03T09:34:58.135Z,13.40
2018-10-03T09:37:26.372Z,13.60
2018-10-03T09:39:54.652Z,13.70
2018-10-03T09:42:24.027Z,13.60
2018-10-03T09:45:04.806Z,13.70
2018-10-03T09:47:46.487Z,13.80
2018-10-03T09:50:14.805Z,14.00
2018-10-03T09:52:43.077Z,14.10
2018-10-03T09:55:23.245Z,14.10
2018-10-03T09:57:51.466Z,13.80
2018-10-03T10:00:25.274Z,13.90
2018-10-03T10:02:53.440Z,13.60
2018-10-03T10:05:33.640Z,13.60
2018-10-03T10:08:14.581Z,13.60
2018-10-03T10:10:55.515Z,13.80
2018-10-03T10:13:24.286Z,13.70
2018-10-03T10:16:05.128Z,13.90
2018-10-03T10:18:33.389Z,13.80
2018-10-03T10:21:14.333Z,14.00
2018-10-03T10:23:42.557Z,14.10
2018-10-03T10:26:13.871Z,14.20
2018-10-03T10:28:42.860Z,14.20
2018-10-03T10:31:25.586Z,14.60
2018-10-03T10:33:53.945Z,15.40
2018-10-03T10:36:23.241Z,16.30
2018-10-03T10:39:05.310Z,17.50
2018-10-03T10:41:33.796Z,19.00
2018-10-03T10:44:14.715Z,17.80
2018-10-03T10:46:44.739Z,17.70
2018-10-03T10:49:12.934Z,17.70
2018-10-03T10:51:41.322Z,18.00
2018-10-03T10:54:08.872Z,17.90
2018-10-03T10:56:42.786Z,16.90
2018-10-03T10:59:10.681Z,16.00
2018-10-03T11:01:44.036Z,14.50
2018-10-03T11:04:11.566Z,13.10
2018-10-03T11:06:45.339Z,12.40
2018-10-03T11:09:12.874Z,12.50
2018-10-03T11:11:46.725Z,14.00
2018-10-03T11:14:20.268Z,15.10
2018-10-03T11:16:53.999Z,15.10
2018-10-03T11:19:27.630Z,14.90
2018-10-03T11:21:55.174Z,14.40
2018-10-03T11:24:22.876Z,13.70
2018-10-03T11:26:50.289Z,13.40
2018-10-03T11:29:17.839Z,12.90
2018-10-03T11:31:51.645Z,13.60
2018-10-03T11:34:26.109Z,13.70
2018-10-03T11:37:00.810Z,13.40
2018-10-03T11:39:34.385Z,13.40
2018-10-03T11:42:07.830Z,14.70
2018-10-03T11:44:41.358Z,15.20
2018-10-03T11:47:08.886Z,16.00
2018-10-03T11:49:36.446Z,16.70
2018-10-03T11:52:04.082Z,16.60
2018-10-03T11:54:31.602Z,16.60
2018-10-03T11:57:05.577Z,16.80
2018-10-03T11:59:40.995Z,16.60
2018-10-03T12:02:08.576Z,16.00
2018-10-03T12:04:37.055Z,15.00
2018-10-03T12:07:10.160Z,14.50
2018-10-03T12:09:43.614Z,14.20
2018-10-03T12:12:11.132Z,13.70
2018-10-03T12:14:44.797Z,13.70
2018-10-03T12:17:18.230Z,14.40
2018-10-03T12:19:48.552Z,14.40
2018-10-03T12:22:16.149Z,15.20
2018-10-03T12:24:50.053Z,16.30
2018-10-03T12:27:17.607Z,16.90
2018-10-03T12:29:45.154Z,17.10
2018-10-03T12:32:14.506Z,16.90
2018-10-03T12:34:45.304Z,16.60
2018-10-03T12:37:18.309Z,16.80
2018-10-03T12:39:46.040Z,16.90
2018-10-03T12:42:13.586Z,17.00
2018-10-03T12:44:47.126Z,17.60
2018-10-03T12:47:20.604Z,17.90
2018-10-03T12:49:54.322Z,17.80
2018-10-03T12:52:27.856Z,18.00
2018-10-03T12:55:01.420Z,17.70
2018-10-03T12:57:28.972Z,17.90
2018-10-03T13:00:02.460Z,18.00
2018-10-03T13:02:30.261Z,17.70
2018-10-03T13:05:04.060Z,17.50
2018-10-03T13:07:37.628Z,17.70
2018-10-03T13:10:05.288Z,17.70
2018-10-03T13:12:33.236Z,17.70
2018-10-03T13:15:00.864Z,17.90
2018-10-03T13:17:33.937Z,18.20
2018-10-03T13:20:01.583Z,17.80
2018-10-03T13:22:29.165Z,17.60
2018-10-03T13:24:56.724Z,17.20
2018-10-03T13:27:24.282Z,17.00
2018-10-03T13:29:51.875Z,17.10
2018-10-03T13:32:19.466Z,17.10
2018-10-03T13:34:47.011Z,17.30
2018-10-03T13:37:20.407Z,17.50
2018-10-03T13:39:47.963Z,17.60
2018-10-03T13:42:22.559Z,17.70
2018-10-03T13:44:52.287Z,17.90
2018-10-03T13:47:21.428Z,18.00
2018-10-03T13:49:56.914Z,18.20
2018-10-03T13:52:26.949Z,18.40
2018-10-03T13:54:54.552Z,18.50
2018-10-03T13:57:30.281Z,18.80
2018-10-03T14:00:01.418Z,19.10
2018-10-03T14:02:35.452Z,20.70
2018-10-03T14:05:05.671Z,21.20
2018-10-03T14:07:35.469Z,21.10
2018-10-03T14:10:09.428Z,20.50
2018-10-03T14:12:44.087Z,20.00
2018-10-03T14:15:17.581Z,19.50
2018-10-03T14:17:46.123Z,19.20
2018-10-03T14:20:20.800Z,18.90
2018-10-03T14:22:58.365Z,18.80
2018-10-03T14:25:32.557Z,19.20
2018-10-03T14:28:05.868Z,18.90
2018-10-03T14:30:39.562Z,19.10
2018-10-03T14:33:13.273Z,18.80
2018-10-03T14:35:46.945Z,18.00
2018-10-03T14:38:20.684Z,17.80
2018-10-03T14:40:48.320Z,17.60
2018-10-03T14:43:32.141Z,17.10
2018-10-03T14:46:08.244Z,17.00
2018-10-03T14:48:44.985Z,17.10
2018-10-03T14:51:21.490Z,17.20
2018-10-03T14:53:58.480Z,17.40
2018-10-03T14:56:34.821Z,17.40
2018-10-03T14:59:11.080Z,17.00
2018-10-03T15:01:47.721Z,16.80
2018-10-03T15:04:24.839Z,16.60
2018-10-03T15:06:58.136Z,16.70
2018-10-03T15:09:31.633Z,16.90
2018-10-03T15:12:05.146Z,16.80
2018-10-03T15:14:33.160Z,16.70
2018-10-03T15:17:00.703Z,16.60
2018-10-03T15:19:28.232Z,16.30
2018-10-03T15:21:55.801Z,16.10
2018-10-03T15:24:23.368Z,16.00
2018-10-03T15:26:50.849Z,15.80
2018-10-03T15:29:24.594Z,15.60
2018-10-03T15:31:58.204Z,15.30
2018-10-03T15:34:27.523Z,15.20
2018-10-03T15:36:55.159Z,15.10
2018-10-03T15:39:28.842Z,15.10
2018-10-03T15:42:02.382Z,15.00
2018-10-03T15:44:35.929Z,15.00
2018-10-03T15:47:09.568Z,14.90
2018-10-03T15:49:37.178Z,14.80
2018-10-03T15:52:04.694Z,14.70
2018-10-03T15:54:38.480Z,14.70
2018-10-03T15:57:12.131Z,14.70
2018-10-03T15:59:45.652Z,14.60
2018-10-03T16:02:13.181Z,14.50
2018-10-03T16:04:40.748Z,14.50
2018-10-03T16:07:08.347Z,14.50
2018-10-03T16:09:35.977Z,14.40
2018-10-03T16:12:03.655Z,14.30
2018-10-03T16:14:37.469Z,14.30
2018-10-03T16:17:04.993Z,14.20
2018-10-03T16:19:32.483Z,14.10
2018-10-03T16:22:00.023Z,14.20
2018-10-03T16:24:33.265Z,14.10
2018-10-03T16:27:06.661Z,14.10
2018-10-03T16:29:40.258Z,14.10
2018-10-03T16:32:13.985Z,14.00
2018-10-03T16:34:47.599Z,13.80
2018-10-03T16:39:42.606Z,13.70
2018-10-03T16:42:16.292Z,13.80
2018-10-03T16:44:49.822Z,13.70
2018-10-03T16:47:23.340Z,13.70
2018-10-03T16:52:18.310Z,13.50
2018-10-03T16:54:45.869Z,13.50
2018-10-03T16:57:13.731Z,13.50
2018-10-03T16:59:41.281Z,13.40
2018-10-03T17:02:08.814Z,13.40
2018-10-03T17:04:36.385Z,13.40
2018-10-03T17:07:04.038Z,13.30
2018-10-03T17:09:33.138Z,13.30
2018-10-03T17:12:00.703Z,13.30
2018-10-03T17:14:31.540Z,13.20
2018-10-03T17:17:00.192Z,13.20
2018-10-03T17:19:27.797Z,13.10
2018-10-03T17:22:01.340Z,13.00
2018-10-03T17:24:30.296Z,13.00
2018-10-03T17:26:57.984Z,12.90
2018-10-03T17:29:25.554Z,12.90
2018-10-03T17:31:54.003Z,12.80
2018-10-03T17:34:27.093Z,12.80
2018-10-03T17:37:00.760Z,12.70
2018-10-03T17:39:28.819Z,12.70
2018-10-03T17:42:01.981Z,12.60
2018-10-03T17:44:35.512Z,12.60
2018-10-03T17:47:03.093Z,12.50
2018-10-03T17:49:30.631Z,12.50
2018-10-03T17:51:58.191Z,12.50
2018-10-03T17:54:25.748Z,12.40
2018-10-03T17:56:53.347Z,12.40
2018-10-03T17:59:20.913Z,12.40
2018-10-03T18:01:50.416Z,12.30
2018-10-03T18:04:23.849Z,12.40
2018-10-03T18:06:57.436Z,12.40
2018-10-03T18:09:31.213Z,12.40
2018-10-03T18:12:05.429Z,12.40
2018-10-03T18:14:39.372Z,12.40
2018-10-03T18:17:12.869Z,12.40
2018-10-03T18:19:46.458Z,12.40
2018-10-03T18:22:14.099Z,12.40
2018-10-03T18:24:47.810Z,12.30
2018-10-03T18:27:21.309Z,12.30
2018-10-03T18:29:54.820Z,12.20
2018-10-03T18:32:22.377Z,12.20
2018-10-03T18:34:50.248Z,12.20
2018-10-03T18:37:17.928Z,12.20
2018-10-03T18:39:45.529Z,12.10
2018-10-03T18:42:19.110Z,12.10
2018-10-03T18:44:52.781Z,12.10
2018-10-03T18:47:26.290Z,12.10
2018-10-03T18:49:59.932Z,12.10
2018-10-03T18:52:34.479Z,12.10
2018-10-03T18:55:07.855Z,12.00
2018-10-03T18:57:35.438Z,12.10
2018-10-03T19:00:03.073Z,12.00
2018-10-03T19:02:32.428Z,12.00
2018-10-03T19:05:06.587Z,12.00
2018-10-03T19:07:40.882Z,11.90
2018-10-03T19:10:14.553Z,11.90
2018-10-03T19:12:43.757Z,11.80
2018-10-03T19:15:16.929Z,11.70
2018-10-03T19:17:47.583Z,11.70
2018-10-03T19:20:15.357Z,11.70
2018-10-03T19:22:42.820Z,11.60
2018-10-03T19:25:11.303Z,11.70
2018-10-03T19:27:40.519Z,11.80
2018-10-03T19:30:08.121Z,11.80
2018-10-03T19:32:36.741Z,11.70
2018-10-03T19:35:09.859Z,11.70
2018-10-03T19:37:37.844Z,11.70
2018-10-03T19:40:11.552Z,11.70
2018-10-03T19:42:44.799Z,11.60
2018-10-03T19:45:18.442Z,11.70
2018-10-03T19:47:46.089Z,11.70
2018-10-03T19:50:13.741Z,11.70
2018-10-03T19:52:43.276Z,11.60
2018-10-03T19:55:10.972Z,11.60
2018-10-03T19:57:40.328Z,11.60
2018-10-03T20:00:08.216Z,11.50
2018-10-03T20:02:35.984Z,11.50
2018-10-03T20:05:03.963Z,11.50
2018-10-03T20:07:37.108Z,11.40
2018-10-03T20:10:04.738Z,11.40
2018-10-03T20:12:33.108Z,11.40
2018-10-03T20:15:01.333Z,11.30
2018-10-03T20:17:28.867Z,11.30
2018-10-03T20:19:56.674Z,11.30
2018-10-03T20:22:24.249Z,11.20
2018-10-03T20:24:57.373Z,11.20
2018-10-03T20:27:26.148Z,11.20
2018-10-03T20:29:59.575Z,11.20
2018-10-03T20:32:27.161Z,11.20
2018-10-03T20:35:01.033Z,11.10
2018-10-03T20:37:30.258Z,11.10
2018-10-03T20:40:03.282Z,11.10
2018-10-03T20:42:36.908Z,11.10
2018-10-03T20:45:05.066Z,11.10
2018-10-03T20:47:38.271Z,11.00
2018-10-03T20:50:05.861Z,11.00
2018-10-03T20:52:39.512Z,11.00
2018-10-03T20:55:06.909Z,11.00
2018-10-03T20:57:40.731Z,10.90
2018-10-03T21:00:14.407Z,10.90
2018-10-03T21:02:48.207Z,10.90
2018-10-03T21:05:21.731Z,10.80
2018-10-03T21:07:55.242Z,10.80
2018-10-03T21:10:28.798Z,10.70
2018-10-03T21:12:56.430Z,10.70
2018-10-03T21:15:30.529Z,10.70
2018-10-03T21:18:03.593Z,10.70
2018-10-03T21:20:37.122Z,10.70
2018-10-03T21:23:11.025Z,10.70
2018-10-03T21:25:44.454Z,10.70
2018-10-03T21:28:18.057Z,10.70
2018-10-03T21:30:45.616Z,10.70
2018-10-03T21:33:13.279Z,10.70
2018-10-03T21:35:40.899Z,10.70
2018-10-03T21:38:08.460Z,10.60
2018-10-03T21:40:41.653Z,10.60
2018-10-03T21:43:09.296Z,10.60
2018-10-03T21:45:36.853Z,10.60
2018-10-03T21:48:10.476Z,10.50
2018-10-03T21:50:38.170Z,10.50
2018-10-03T21:53:06.459Z,10.50
2018-10-03T21:55:34.122Z,10.50
2018-10-03T21:58:01.681Z,10.50
2018-10-03T22:00:40.141Z,10.50
2018-10-03T22:03:07.706Z,10.50
2018-10-03T22:05:35.619Z,10.50
2018-10-03T22:08:04.867Z,10.50
2018-10-03T22:10:32.906Z,10.50
2018-10-03T22:13:00.444Z,10.50
2018-10-03T22:15:34.347Z,10.40
2018-10-03T22:18:02.118Z,10.40
2018-10-03T22:20:29.817Z,10.30
2018-10-03T22:22:57.506Z,10.30
2018-10-03T22:25:25.444Z,10.30
2018-10-03T22:27:53.312Z,10.30
2018-10-03T22:30:21.152Z,10.30
2018-10-03T22:32:55.079Z,10.30
2018-10-03T22:35:29.305Z,10.30
2018-10-03T22:37:56.929Z,10.20
2018-10-03T22:40:26.042Z,10.20
2018-10-03T22:42:53.733Z,10.20
2018-10-03T22:45:22.828Z,10.20
2018-10-03T22:47:50.360Z,10.20
2018-10-03T22:50:17.878Z,10.20
2018-10-03T22:52:49.468Z,10.20
2018-10-03T22:55:17.040Z,10.20
2018-10-03T22:57:45.444Z,10.10
2018-10-03T23:00:12.971Z,10.20
2018-10-03T23:02:46.734Z,10.10
2018-10-03T23:05:15.083Z,10.20
2018-10-03T23:07:43.453Z,10.20
2018-10-03T23:10:10.980Z,10.10
2018-10-03T23:12:46.857Z,10.20
2018-10-03T23:15:14.711Z,10.20
2018-10-03T23:17:42.241Z,10.10
2018-10-03T23:20:09.782Z,10.00
2018-10-03T23:22:37.297Z,10.00
2018-10-03T23:25:04.805Z,10.10
2018-10-03T23:27:32.472Z,10.10
2018-10-03T23:30:00.035Z,10.00
2018-10-03T23:32:33.340Z,10.00
2018-10-03T23:35:01.421Z,10.00
2018-10-03T23:37:29.177Z,10.00
2018-10-03T23:39:56.708Z,10.00
2018-10-03T23:42:29.885Z,9.90
2018-10-03T23:44:57.942Z,9.90
2018-10-03T23:47:25.454Z,9.90
2018-10-03T23:49:58.939Z,10.00
2018-10-03T23:52:32.145Z,10.00
2018-10-03T23:54:59.676Z,9.90
2018-10-03T23:57:27.270Z,9.90
